Time;durP1;ratioP1;P1;durP2;ratioP2;P2;SDS_P1;SDS_P2;PMS_P1;PMS_P2;Temp;Humidity;BMP_temperature;BMP_pressure;BME280_temperature;BME280_humidity;BME280_pressure;Samples;Min_cycle;Max_cycle;Signal;HPM_P1;HPM_P2
2021/08/18 00:06:34;;;;;;;5.25;2.42;;;;;;;;;;20917906;28;20048;-67
2021/08/18 00:16:36;;;;;;;4.75;2.13;;;;;;;;;;20918140;28;20122;-66
2021/08/18 00:26:39;;;;;;;4.13;2.20;;;;;;;;;;20915784;28;20056;-66
2021/08/18 00:36:50;;;;;;;5.35;2.28;;;;;;;;;;20914089;28;20060;-64
2021/08/18 00:46:57;;;;;;;4.45;1.90;;;;;;;;;;20914288;28;20124;-65
2021/08/18 00:57:01;;;;;;;5.20;2.30;;;;;;;;;;20914709;28;20049;-67
2021/08/18 01:07:03;;;;;;;6.03;2.42;;;;;;;;;;20913769;28;20045;-63
2021/08/18 01:17:29;;;;;;;4.97;2.17;;;;;;;;;;20913769;28;20049;-64
2021/08/18 01:27:52;;;;;;;8.15;2.50;;;;;;;;;;20913230;28;20394;-65
2021/08/18 01:37:57;;;;;;;4.05;2.45;;;;;;;;;;20911881;28;20095;-65
2021/08/18 01:48:20;;;;;;;5.28;2.00;;;;;;;;;;20913671;28;20053;-64
2021/08/18 01:58:42;;;;;;;6.25;2.50;;;;;;;;;;20926503;28;20056;-64
2021/08/18 02:08:56;;;;;;;4.50;2.03;;;;;;;;;;20927276;28;20064;-64
2021/08/18 02:19:08;;;;;;;6.30;2.07;;;;;;;;;;20926909;28;20048;-63
2021/08/18 02:29:16;;;;;;;4.70;2.08;;;;;;;;;;20925357;28;20405;-64
2021/08/18 02:39:20;;;;;;;6.10;2.45;;;;;;;;;;20924705;28;20391;-64
2021/08/18 02:49:26;;;;;;;3.95;2.55;;;;;;;;;;20924240;28;20528;-64
2021/08/18 02:59:29;;;;;;;5.13;2.67;;;;;;;;;;20922220;28;20056;-63
2021/08/18 03:09:33;;;;;;;6.65;3.05;;;;;;;;;;20922174;28;20049;-63
2021/08/18 03:19:37;;;;;;;6.32;2.92;;;;;;;;;;20922677;28;20180;-63
2021/08/18 03:29:39;;;;;;;6.45;2.70;;;;;;;;;;20921090;28;20091;-63
2021/08/18 03:39:44;;;;;;;5.22;2.63;;;;;;;;;;20920474;28;20045;-63
2021/08/18 03:49:46;;;;;;;4.50;2.85;;;;;;;;;;20919813;28;20061;-63
2021/08/18 03:59:50;;;;;;;8.68;2.85;;;;;;;;;;20918916;28;20049;-63
2021/08/18 04:09:53;;;;;;;5.00;2.67;;;;;;;;;;20917965;28;20153;-64
2021/08/18 04:19:57;;;;;;;7.07;2.58;;;;;;;;;;20915966;28;20098;-63
2021/08/18 04:30:00;;;;;;;5.43;3.20;;;;;;;;;;20916324;28;20417;-63
2021/08/18 04:40:06;;;;;;;4.72;2.72;;;;;;;;;;20915802;28;20044;-63
2021/08/18 04:50:11;;;;;;;6.38;2.60;;;;;;;;;;20915041;28;20459;-63
2021/08/18 05:00:15;;;;;;;4.53;2.92;;;;;;;;;;20915044;28;20405;-63
2021/08/18 05:10:17;;;;;;;5.15;2.95;;;;;;;;;;20913344;28;20056;-64
2021/08/18 05:20:19;;;;;;;;;;;;;;;;;;20913932;28;20052;-63
2021/08/18 05:30:22;;;;;;;4.03;3.00;;;;;;;;;;20912092;28;19921;-64
2021/08/18 05:40:25;;;;;;;4.80;2.92;;;;;;;;;;20913508;28;20084;-64
2021/08/18 05:50:31;;;;;;;4.18;2.83;;;;;;;;;;20911916;28;20476;-64
2021/08/18 06:00:34;;;;;;;6.00;3.20;;;;;;;;;;20911886;28;20052;-64
2021/08/18 06:10:39;;;;;;;5.97;2.90;;;;;;;;;;20910832;28;20504;-65
2021/08/18 06:20:53;;;;;;;7.57;2.95;;;;;;;;;;20910777;28;20045;-64
2021/08/18 06:31:09;;;;;;;8.30;3.97;;;;;;;;;;20909765;28;20092;-65
2021/08/18 06:41:16;;;;;;;8.13;3.58;;;;;;;;;;20917507;28;20391;-64
2021/08/18 06:51:22;;;;;;;7.32;2.80;;;;;;;;;;20924709;28;20516;-64
2021/08/18 07:01:26;;;;;;;3.90;2.58;;;;;;;;;;20923374;28;20045;-60
2021/08/18 07:11:30;;;;;;;6.65;2.85;;;;;;;;;;20922962;28;20059;-60
2021/08/18 07:21:33;;;;;;;9.68;3.42;;;;;;;;;;20921222;28;20045;-65
2021/08/18 07:31:37;;;;;;;6.80;3.03;;;;;;;;;;20920574;28;20100;-65
2021/08/18 07:41:48;;;;;;;10.43;3.53;;;;;;;;;;20920475;28;20045;-63
2021/08/18 07:51:57;;;;;;;9.75;3.10;;;;;;;;;;20919445;28;20057;-63
2021/08/18 08:02:09;;;;;;;8.70;3.80;;;;;;;;;;20918707;28;20120;-63
2021/08/18 08:12:15;;;;;;;11.77;3.78;;;;;;;;;;20918406;28;20406;-62
2021/08/18 08:22:19;;;;;;;12.55;3.55;;;;;;;;;;20917280;28;20500;-64
2021/08/18 08:32:41;;;;;;;10.95;3.75;;;;;;;;;;20915730;28;20053;-64
2021/08/18 08:43:04;;;;;;;10.45;3.88;;;;;;;;;;20916561;28;20094;-64
2021/08/18 08:53:24;;;;;;;10.47;4.13;;;;;;;;;;20913771;28;20068;-64
2021/08/18 09:03:35;;;;;;;11.63;4.20;;;;;;;;;;20912069;28;20053;-64
2021/08/18 09:13:46;;;;;;;14.70;6.13;;;;;;;;;;20911954;28;20138;-65
2021/08/18 09:24:13;;;;;;;19.75;6.22;;;;;;;;;;20911200;28;20106;-64
2021/08/18 09:34:26;;;;;;;11.18;5.28;;;;;;;;;;20911878;28;20127;-64
2021/08/18 09:44:37;;;;;;;14.75;4.90;;;;;;;;;;20911426;28;20089;-64
2021/08/18 09:54:53;;;;;;;16.17;5.97;;;;;;;;;;20910746;28;20057;-64
2021/08/18 10:05:02;;;;;;;17.75;5.70;;;;;;;;;;20910968;28;20059;-63
2021/08/18 10:15:07;;;;;;;14.88;4.85;;;;;;;;;;20915991;28;20055;-63
2021/08/18 10:25:30;;;;;;;12.73;5.47;;;;;;;;;;20926221;28;20053;-63
2021/08/18 10:35:37;;;;;;;13.57;5.80;;;;;;;;;;20925181;28;20052;-63
2021/08/18 10:45:40;;;;;;;15.63;5.30;;;;;;;;;;20924530;28;20059;-64
2021/08/18 10:55:43;;;;;;;15.23;5.53;;;;;;;;;;20923714;28;20132;-63
2021/08/18 11:05:48;;;;;;;15.55;5.20;;;;;;;;;;20923295;28;20469;-63
2021/08/18 11:15:50;;;;;;;11.55;5.30;;;;;;;;;;20922169;28;20056;-64
2021/08/18 11:25:57;;;;;;;11.95;6.47;;;;;;;;;;20919856;28;20049;-63
2021/08/18 11:36:00;;;;;;;14.90;6.10;;;;;;;;;;20919063;28;20056;-63
2021/08/18 11:46:04;;;;;;;11.07;5.28;;;;;;;;;;20919607;28;20532;-63
2021/08/18 11:56:07;;;;;;;12.25;5.28;;;;;;;;;;20919027;28;20432;-64
2021/08/18 12:06:09;;;;;;;13.32;5.97;;;;;;;;;;20917918;28;20060;-62
2021/08/18 12:16:31;;;;;;;11.63;5.22;;;;;;;;;;20917484;28;20059;-67
2021/08/18 12:26:35;;;;;;;12.18;5.50;;;;;;;;;;20916649;28;20233;-63
2021/08/18 12:36:37;;;;;;;12.73;4.82;;;;;;;;;;20915307;28;20055;-63
2021/08/18 12:46:41;;;;;;;13.93;6.57;;;;;;;;;;20919058;28;20454;-62
2021/08/18 12:56:46;;;;;;;11.25;5.18;;;;;;;;;;20917217;28;20053;-62
2021/08/18 13:06:49;;;;;;;7.53;4.63;;;;;;;;;;20913788;28;20041;-62
2021/08/18 13:16:51;;;;;;;7.68;3.85;;;;;;;;;;20913259;28;20482;-61
2021/08/18 13:26:57;;;;;;;10.65;3.67;;;;;;;;;;20911421;28;20114;-63
2021/08/18 13:37:00;;;;;;;13.35;3.97;;;;;;;;;;20912549;28;20049;-61
2021/08/18 13:47:04;;;;;;;8.07;3.53;;;;;;;;;;20913066;28;20059;-61
2021/08/18 13:57:09;;;;;;;5.78;3.50;;;;;;;;;;20928737;28;20394;-63
2021/08/18 14:07:12;;;;;;;9.40;4.70;;;;;;;;;;20927633;28;20041;-63
2021/08/18 14:17:17;;;;;;;6.63;3.35;;;;;;;;;;20927374;28;20099;-63
2021/08/18 14:27:19;;;;;;;7.47;2.90;;;;;;;;;;20926750;28;20065;-62
2021/08/18 14:37:22;;;;;;;7.07;2.97;;;;;;;;;;20925610;28;20048;-63
2021/08/18 14:47:24;;;;;;;5.03;2.97;;;;;;;;;;20924872;28;20053;-63
2021/08/18 14:57:28;;;;;;;6.47;2.90;;;;;;;;;;20923108;28;20063;-61
2021/08/18 15:07:30;;;;;;;11.20;6.25;;;;;;;;;;20922860;28;20136;-62
2021/08/18 15:17:37;;;;;;;6.45;3.35;;;;;;;;;;20922191;28;20107;-62
2021/08/18 15:27:46;;;;;;;5.47;2.97;;;;;;;;;;20921602;28;20056;-62
2021/08/18 15:37:53;;;;;;;6.03;2.72;;;;;;;;;;20920387;28;20053;-64
2021/08/18 15:47:56;;;;;;;4.85;3.58;;;;;;;;;;20919955;28;20053;-63
2021/08/18 15:58:01;;;;;;;5.80;3.30;;;;;;;;;;20919851;28;20055;-62
2021/08/18 16:08:10;;;;;;;6.65;2.83;;;;;;;;;;20917888;28;20056;-63
2021/08/18 16:18:12;;;;;;;3.25;2.30;;;;;;;;;;20917220;28;20057;-61
2021/08/18 16:28:15;;;;;;;3.90;2.85;;;;;;;;;;20916523;28;20132;-62
2021/08/18 16:38:18;;;;;;;4.72;2.50;;;;;;;;;;20915852;28;20060;-62
2021/08/18 16:48:20;;;;;;;5.13;2.70;;;;;;;;;;20913630;28;20124;-62
2021/08/18 16:58:24;;;;;;;4.28;2.95;;;;;;;;;;20914692;28;20498;-63
2021/08/18 17:08:26;;;;;;;4.80;2.75;;;;;;;;;;20913775;28;20132;-62
2021/08/18 17:18:36;;;;;;;5.22;2.92;;;;;;;;;;20912021;28;20169;-63
2021/08/18 17:28:38;;;;;;;5.25;2.63;;;;;;;;;;20911797;28;20375;-62
2021/08/18 17:38:41;;;;;;;6.28;3.33;;;;;;;;;;20911706;28;20462;-63
2021/08/18 17:48:44;;;;;;;4.47;2.90;;;;;;;;;;20958612;28;20542;-58
2021/08/18 17:58:45;;;;;;;4.45;3.10;;;;;;;;;;20992445;28;20044;-60
2021/08/18 18:08:47;;;;;;;3.65;2.70;;;;;;;;;;20991605;28;20059;-66
2021/08/18 18:18:49;;;;;;;5.28;2.92;;;;;;;;;;20992798;28;20056;-64
2021/08/18 18:28:52;;;;;;;5.93;4.40;;;;;;;;;;20992016;28;20088;-65
2021/08/18 18:38:54;;;;;;;9.68;4.63;;;;;;;;;;21000381;28;20094;-65
2021/08/18 18:48:56;;;;;;;7.07;3.85;;;;;;;;;;21005722;28;20110;-65
2021/08/18 18:58:58;;;;;;;8.82;3.67;;;;;;;;;;21005308;28;20504;-58
2021/08/18 19:14:00;;;;;;;7.28;4.90;;;;;;;;;;20965846;27;20135;-60
2021/08/18 19:24:02;;;;;;;10.40;5.20;;;;;;;;;;20967452;28;20110;-60
2021/08/18 19:34:04;;;;;;;9.25;5.20;;;;;;;;;;20950003;28;20510;-62
2021/08/18 19:44:06;;;;;;;12.50;5.50;;;;;;;;;;20917855;27;20061;-60
2021/08/18 19:54:08;;;;;;;7.65;5.28;;;;;;;;;;20919777;28;20049;-60
2021/08/18 20:04:11;;;;;;;6.70;4.93;;;;;;;;;;20883980;28;20068;-60
2021/08/18 20:14:14;;;;;;;8.63;5.50;;;;;;;;;;20889056;28;20050;-63
2021/08/18 20:24:16;;;;;;;7.03;5.10;;;;;;;;;;20840955;28;20049;-64
2021/08/18 20:34:19;;;;;;;8.93;5.53;;;;;;;;;;20852812;28;20045;-64
2021/08/18 20:44:20;;;;;;;9.20;5.45;;;;;;;;;;20839211;28;20120;-61
2021/08/18 20:54:22;;;;;;;8.23;5.25;;;;;;;;;;20826501;28;20508;-68
2021/08/18 21:04:23;;;;;;;6.95;4.82;;;;;;;;;;20807035;28;20134;-68
2021/08/18 21:14:24;;;;;;;8.80;4.20;;;;;;;;;;20825972;28;20101;-69
2021/08/18 21:24:25;;;;;;;6.95;4.55;;;;;;;;;;20825058;28;20052;-67
2021/08/18 21:34:26;;;;;;;10.18;4.90;;;;;;;;;;20823604;28;20046;-67
2021/08/18 21:44:29;;;;;;;8.18;4.60;;;;;;;;;;20825757;28;20149;-67
2021/08/18 21:54:32;;;;;;;6.63;4.57;;;;;;;;;;20822706;28;20421;-67
2021/08/18 22:04:37;;;;;;;8.65;5.15;;;;;;;;;;20821251;28;20053;-68
2021/08/18 22:14:40;;;;;;;5.55;4.32;;;;;;;;;;20822098;28;20058;-68
2021/08/18 22:24:42;;;;;;;6.75;4.45;;;;;;;;;;20820832;28;20443;-68
2021/08/18 22:34:46;;;;;;;6.85;4.28;;;;;;;;;;20820611;28;20505;-66
2021/08/18 22:44:51;;;;;;;6.85;3.97;;;;;;;;;;20818960;28;20061;-68
2021/08/18 22:54:53;;;;;;;7.18;4.82;;;;;;;;;;20819107;28;20060;-69
2021/08/18 23:04:56;;;;;;;5.70;3.70;;;;;;;;;;20817982;28;20672;-67
2021/08/18 23:14:58;;;;;;;6.85;4.22;;;;;;;;;;20817747;28;20057;-67
2021/08/18 23:25:03;;;;;;;6.15;3.65;;;;;;;;;;20800789;28;20410;-67
2021/08/18 23:35:06;;;;;;;4.82;2.88;;;;;;;;;;20817571;28;20049;-67
2021/08/18 23:45:09;;;;;;;5.00;3.65;;;;;;;;;;20816135;28;20451;-67
2021/08/18 23:55:11;;;;;;;6.28;3.00;;;;;;;;;;20804741;28;20050;-68
